Terminal Aerodrome Forecast
Issued by NWS Paducah, KY

Home | Current Version | Previous Version | Graphics & Text | Print | Product List | Glossary On
Versions: 1 2 3 4 5 6 7 8 9 10 11 12
311
FTUS43 KPAH 191121
TAFEVV
TAF
KEVV 191121Z 1912/2012 00000KT P6SM SCT100
     FM191500 28005KT P6SM SCT050
     FM200100 00000KT P6SM SKC
     FM200800 00000KT 6SM BR SKC=

USA.gov is the U.S. government's official web portal to all federal, state and local government web resources and services.